createdAt,value
2019-01-20T00:01:51.000Z,1007.649
2019-01-20T00:11:51.000Z,1007.623
2019-01-20T00:21:51.000Z,1007.594
2019-01-20T00:31:51.000Z,1007.562
2019-01-20T00:41:52.000Z,1007.573
2019-01-20T00:51:52.000Z,1007.685
2019-01-20T01:01:52.000Z,1007.738
2019-01-20T01:11:52.000Z,1007.756
2019-01-20T01:21:52.000Z,1007.812
2019-01-20T01:31:52.000Z,1007.831
2019-01-20T01:41:52.000Z,1007.854
2019-01-20T01:51:52.000Z,1007.868
2019-01-20T02:11:52.000Z,1007.758
2019-01-20T02:21:52.000Z,1007.755
2019-01-20T02:31:52.000Z,1007.829
2019-01-20T02:41:52.000Z,1007.79
2019-01-20T02:51:52.000Z,1007.787
2019-01-20T03:01:52.000Z,1007.807
2019-01-20T03:11:52.000Z,1007.81
2019-01-20T03:21:52.000Z,1007.805
2019-01-20T03:31:52.000Z,1007.779
2019-01-20T03:41:52.000Z,1007.737
2019-01-20T03:51:52.000Z,1007.735
2019-01-20T04:01:52.000Z,1007.723
2019-01-20T04:11:52.000Z,1007.731
2019-01-20T04:21:52.000Z,1007.671
2019-01-20T04:31:52.000Z,1007.627
2019-01-20T04:41:52.000Z,1007.661
2019-01-20T04:51:52.000Z,1007.716
2019-01-20T05:01:52.000Z,1007.791
2019-01-20T05:11:52.000Z,1007.783
2019-01-20T05:21:52.000Z,1007.789
2019-01-20T05:31:52.000Z,1007.805
2019-01-20T05:41:52.000Z,1007.848
2019-01-20T05:51:52.000Z,1007.925
2019-01-20T06:01:52.000Z,1007.951
2019-01-20T06:11:52.000Z,1007.949
2019-01-20T06:21:52.000Z,1008.013
2019-01-20T06:31:52.000Z,1008.051
2019-01-20T06:41:52.000Z,1008.08
2019-01-20T06:51:52.000Z,1008.099
2019-01-20T07:01:52.000Z,1008.218
2019-01-20T07:11:52.000Z,1008.356
2019-01-20T07:21:52.000Z,1008.562
2019-01-20T07:31:52.000Z,1008.73
2019-01-20T07:41:52.000Z,1008.826
2019-01-20T07:51:52.000Z,1008.938
2019-01-20T08:01:52.000Z,1009.062
2019-01-20T08:11:52.000Z,1009.138
2019-01-20T08:31:52.000Z,1009.264
2019-01-20T08:41:52.000Z,1009.355
2019-01-20T08:51:52.000Z,1009.478
2019-01-20T09:01:53.000Z,1009.592
2019-01-20T09:11:53.000Z,1009.668
2019-01-20T09:21:53.000Z,1009.692
2019-01-20T09:31:54.000Z,1009.788
2019-01-20T09:41:53.000Z,1009.883
2019-01-20T09:51:53.000Z,1009.94
2019-01-20T10:01:53.000Z,1010.049
2019-01-20T10:11:53.000Z,1010.114
2019-01-20T10:21:53.000Z,1010.193
2019-01-20T10:31:53.000Z,1010.234
2019-01-20T10:41:53.000Z,1010.289
2019-01-20T10:51:56.000Z,1010.314
2019-01-20T11:01:55.000Z,1010.234
2019-01-20T11:11:53.000Z,1010.232
2019-01-20T11:21:53.000Z,1010.335
2019-01-20T11:31:53.000Z,1010.338
2019-01-20T11:41:53.000Z,1010.376
2019-01-20T11:51:53.000Z,1010.374
2019-01-20T12:01:53.000Z,1010.373
2019-01-20T12:11:53.000Z,1010.421
2019-01-20T12:21:54.000Z,1010.38
2019-01-20T12:31:53.000Z,1010.36
2019-01-20T12:41:53.000Z,1010.289
2019-01-20T12:51:55.000Z,1010.291
2019-01-20T13:01:53.000Z,1010.267
2019-01-20T13:11:53.000Z,1010.299
2019-01-20T13:31:53.000Z,1010.364
2019-01-20T13:41:53.000Z,1010.45
2019-01-20T13:51:53.000Z,1010.462
2019-01-20T14:01:53.000Z,1010.453
2019-01-20T14:11:53.000Z,1010.511
2019-01-20T14:21:53.000Z,1010.557
2019-01-20T14:31:53.000Z,1010.592
2019-01-20T14:41:53.000Z,1010.65
2019-01-20T14:51:53.000Z,1010.699
2019-01-20T15:01:53.000Z,1010.748
2019-01-20T15:11:53.000Z,1010.802
2019-01-20T15:31:53.000Z,1011.011
2019-01-20T15:41:53.000Z,1011.102
2019-01-20T15:51:53.000Z,1011.237
2019-01-20T16:01:53.000Z,1011.273
2019-01-20T16:11:54.000Z,1011.324
2019-01-20T16:21:54.000Z,1011.438
2019-01-20T16:31:53.000Z,1011.504
2019-01-20T16:41:55.000Z,1011.622
2019-01-20T16:51:53.000Z,1011.705
2019-01-20T17:01:53.000Z,1011.785
2019-01-20T17:11:54.000Z,1011.82
2019-01-20T17:21:54.000Z,1011.834
2019-01-20T17:31:56.000Z,1011.913
2019-01-20T17:41:54.000Z,1011.995
2019-01-20T17:51:54.000Z,1012.096
2019-01-20T18:01:54.000Z,1012.254
2019-01-20T18:11:55.000Z,1012.299
2019-01-20T18:21:55.000Z,1012.341
2019-01-20T18:31:54.000Z,1012.463
2019-01-20T18:41:54.000Z,1012.575
2019-01-20T18:51:54.000Z,1012.642
2019-01-20T19:01:54.000Z,1012.806
2019-01-20T19:11:54.000Z,1012.894
2019-01-20T19:21:54.000Z,1012.889
2019-01-20T19:31:54.000Z,1012.96
2019-01-20T19:41:54.000Z,1013.033
2019-01-20T19:51:54.000Z,1013.046
2019-01-20T20:01:56.000Z,1013.196
2019-01-20T20:11:54.000Z,1013.414
2019-01-20T20:21:54.000Z,1013.503
2019-01-20T20:31:54.000Z,1013.562
2019-01-20T20:41:54.000Z,1013.639
2019-01-20T20:51:54.000Z,1013.787
2019-01-20T21:01:54.000Z,1013.897
2019-01-20T21:11:54.000Z,1014.016
2019-01-20T21:21:54.000Z,1013.984
2019-01-20T21:31:54.000Z,1014.011
2019-01-20T21:41:54.000Z,1014.052
2019-01-20T21:51:54.000Z,1014.075
2019-01-20T22:01:54.000Z,1014.238
2019-01-20T22:11:54.000Z,1014.302
2019-01-20T22:21:54.000Z,1014.393
2019-01-20T22:31:54.000Z,1014.386
2019-01-20T22:41:55.000Z,1014.482
2019-01-20T22:51:54.000Z,1014.509
2019-01-20T23:01:54.000Z,1014.602
2019-01-20T23:11:54.000Z,1014.631
2019-01-20T23:21:54.000Z,1014.56
2019-01-20T23:31:54.000Z,1014.543
2019-01-20T23:41:54.000Z,1014.558
2019-01-20T23:51:54.000Z,1014.555
